createdAt,value
2023-04-18T00:00:10.671Z,11.32
2023-04-18T00:02:43.877Z,13.10
2023-04-18T00:05:12.376Z,14.80
2023-04-18T00:07:39.449Z,12.48
2023-04-18T00:10:07.335Z,12.00
2023-04-18T00:12:34.409Z,14.02
2023-04-18T00:15:02.901Z,13.38
2023-04-18T00:17:31.704Z,15.00
2023-04-18T00:20:02.186Z,11.95
2023-04-18T00:22:29.003Z,11.23
2023-04-18T00:24:55.764Z,12.25
2023-04-18T00:27:22.519Z,11.85
2023-04-18T00:29:49.636Z,12.57
2023-04-18T00:32:17.060Z,11.43
2023-04-18T00:34:43.959Z,12.95
2023-04-18T00:37:12.535Z,12.30
2023-04-18T00:39:39.338Z,14.23
2023-04-18T00:42:06.384Z,13.40
2023-04-18T00:44:33.228Z,12.70
2023-04-18T00:47:00.094Z,15.32
2023-04-18T00:49:27.469Z,17.35
2023-04-18T00:51:56.694Z,13.38
2023-04-18T00:54:25.021Z,15.25
2023-04-18T00:56:51.864Z,14.80
2023-04-18T00:59:19.311Z,14.65
2023-04-18T01:01:57.434Z,14.88
2023-04-18T01:04:24.413Z,14.73
2023-04-18T01:06:51.362Z,15.43
2023-04-18T01:09:20.030Z,14.02
2023-04-18T01:11:46.814Z,16.05
2023-04-18T01:14:13.893Z,14.13
2023-04-18T01:16:40.882Z,15.75
2023-04-18T01:19:08.278Z,14.35
2023-04-18T01:21:36.948Z,15.35
2023-04-18T01:24:13.713Z,15.18
2023-04-18T01:26:44.002Z,14.85
2023-04-18T01:29:11.600Z,13.43
2023-04-18T01:31:40.307Z,14.38
2023-04-18T01:34:08.453Z,14.30
2023-04-18T01:36:37.571Z,14.30
2023-04-18T01:39:04.662Z,14.48
2023-04-18T01:41:32.796Z,14.32
2023-04-18T01:44:00.268Z,13.23
2023-04-18T01:46:28.151Z,15.05
2023-04-18T01:48:56.227Z,13.52
2023-04-18T01:51:23.250Z,13.70
2023-04-18T01:53:50.367Z,16.42
2023-04-18T01:56:17.228Z,13.98
2023-04-18T01:58:44.065Z,13.35
2023-04-18T02:01:12.648Z,14.75
2023-04-18T02:03:40.114Z,14.38
2023-04-18T02:06:07.443Z,12.27
2023-04-18T02:08:36.075Z,14.00
2023-04-18T02:11:05.348Z,13.73
2023-04-18T02:13:32.460Z,14.25
2023-04-18T02:15:59.454Z,15.88
2023-04-18T02:18:27.247Z,14.75
2023-04-18T02:20:54.179Z,13.85
2023-04-18T02:23:22.255Z,12.45
2023-04-18T02:25:49.626Z,13.93
2023-04-18T02:28:17.775Z,14.55
2023-04-18T02:30:44.644Z,13.02
2023-04-18T02:33:11.448Z,18.63
2023-04-18T02:35:38.802Z,13.43
2023-04-18T02:38:05.673Z,16.45
2023-04-18T02:40:32.453Z,13.15
2023-04-18T02:42:59.700Z,14.27
2023-04-18T02:45:26.564Z,13.63
2023-04-18T02:47:56.414Z,14.13
2023-04-18T02:50:24.814Z,13.25
2023-04-18T02:52:53.652Z,15.80
2023-04-18T02:55:22.603Z,14.82
2023-04-18T02:57:49.610Z,13.25
2023-04-18T03:00:55.770Z,13.35
2023-04-18T03:03:45.704Z,13.80
2023-04-18T03:06:31.788Z,13.25
2023-04-18T03:09:02.497Z,14.20
2023-04-18T03:11:30.735Z,14.80
2023-04-18T03:13:58.017Z,13.15
2023-04-18T03:16:29.608Z,12.35
2023-04-18T03:18:56.504Z,15.32
2023-04-18T03:21:23.722Z,12.82
2023-04-18T03:23:50.696Z,14.00
2023-04-18T03:26:17.550Z,12.55
2023-04-18T03:28:45.741Z,13.35
2023-04-18T03:31:12.705Z,12.43
2023-04-18T03:33:44.117Z,14.68
2023-04-18T03:36:12.506Z,13.20
2023-04-18T03:38:40.745Z,13.25
2023-04-18T03:41:08.626Z,15.57
2023-04-18T03:43:37.623Z,12.85
2023-04-18T03:46:04.808Z,13.13
2023-04-18T03:48:35.661Z,13.32
2023-04-18T03:51:06.301Z,15.57
2023-04-18T03:53:33.600Z,12.23
2023-04-18T03:56:00.957Z,14.15
2023-04-18T03:58:42.651Z,13.60
2023-04-18T04:01:09.627Z,14.15
2023-04-18T04:03:37.645Z,13.32
2023-04-18T04:06:06.474Z,14.10
2023-04-18T04:08:34.091Z,13.35
2023-04-18T04:11:01.210Z,15.70
2023-04-18T04:13:28.548Z,13.23
2023-04-18T04:15:55.863Z,13.98
2023-04-18T04:18:29.693Z,14.40
2023-04-18T04:20:59.069Z,14.43
2023-04-18T04:23:42.464Z,12.60
2023-04-18T04:26:15.101Z,14.45
2023-04-18T04:28:49.481Z,15.82
2023-04-18T04:31:24.241Z,18.80
2023-04-18T04:38:52.549Z,12.82
2023-04-18T04:41:27.745Z,13.13
2023-04-18T04:43:55.347Z,15.27
2023-04-18T04:46:30.698Z,16.42
2023-04-18T04:49:01.029Z,16.30
2023-04-18T04:51:27.984Z,13.65
2023-04-18T04:53:55.464Z,13.43
2023-04-18T04:56:24.762Z,15.70
2023-04-18T04:58:53.621Z,15.48
2023-04-18T05:01:29.638Z,16.10
2023-04-18T05:03:56.935Z,16.23
2023-04-18T05:06:24.723Z,15.40
2023-04-18T05:08:51.876Z,13.82
2023-04-18T05:11:18.847Z,16.13
2023-04-18T05:13:45.700Z,16.48
2023-04-18T05:16:12.868Z,17.60
2023-04-18T05:18:41.468Z,13.90
2023-04-18T05:21:08.262Z,15.75
2023-04-18T05:23:36.896Z,14.68
2023-04-18T05:26:07.030Z,15.80
2023-04-18T05:28:34.590Z,16.48
2023-04-18T05:31:01.598Z,16.10
2023-04-18T05:33:32.310Z,14.05
2023-04-18T05:36:02.812Z,14.63
2023-04-18T05:38:29.893Z,15.05
2023-04-18T05:41:02.354Z,16.75
2023-04-18T05:43:29.493Z,18.58
2023-04-18T05:46:00.490Z,14.98
2023-04-18T05:48:30.287Z,16.02
2023-04-18T05:53:33.586Z,13.75
2023-04-18T05:56:01.628Z,16.73
2023-04-18T05:58:30.097Z,12.93
2023-04-18T06:01:02.328Z,16.15
2023-04-18T06:03:30.017Z,14.35
2023-04-18T06:05:57.981Z,15.10
2023-04-18T06:08:25.761Z,14.82
2023-04-18T06:10:52.881Z,13.05
2023-04-18T06:13:21.018Z,14.25
2023-04-18T06:15:52.873Z,20.02
2023-04-18T06:18:21.535Z,13.10
2023-04-18T06:21:02.592Z,16.05
2023-04-18T06:23:31.075Z,14.48
2023-04-18T06:26:02.339Z,16.48
2023-04-18T06:28:29.656Z,15.85
2023-04-18T06:30:56.863Z,16.00
2023-04-18T06:33:23.928Z,12.88
2023-04-18T06:35:51.388Z,12.90
2023-04-18T06:38:18.229Z,15.60
2023-04-18T06:40:45.079Z,12.20
2023-04-18T06:43:12.549Z,13.45
2023-04-18T06:45:40.003Z,14.55
2023-04-18T06:48:09.140Z,15.68
2023-04-18T06:50:36.279Z,14.15
2023-04-18T06:53:03.140Z,14.77
2023-04-18T06:55:30.705Z,14.30
2023-04-18T06:57:57.511Z,14.95
2023-04-18T07:00:25.974Z,14.25
2023-04-18T07:02:53.660Z,12.98
2023-04-18T07:05:20.913Z,14.90
2023-04-18T07:07:48.105Z,13.20
2023-04-18T07:10:14.887Z,14.40
2023-04-18T07:12:41.692Z,14.57
2023-04-18T07:15:09.478Z,16.33
2023-04-18T07:17:36.973Z,15.20
2023-04-18T07:20:04.231Z,16.25
2023-04-18T07:22:31.518Z,15.68
2023-04-18T07:24:58.767Z,14.27
2023-04-18T07:27:26.905Z,14.23
2023-04-18T07:29:55.343Z,15.15
2023-04-18T07:32:29.051Z,13.95
2023-04-18T07:35:00.659Z,14.90
2023-04-18T07:37:27.786Z,13.38
2023-04-18T07:39:54.969Z,15.13
2023-04-18T07:42:21.782Z,15.20
2023-04-18T07:44:49.473Z,14.85
2023-04-18T07:47:16.770Z,14.30
2023-04-18T07:49:44.083Z,17.20
2023-04-18T07:52:12.383Z,13.52
2023-04-18T07:54:43.443Z,14.68
2023-04-18T07:57:11.436Z,13.95
2023-04-18T07:59:49.737Z,14.30
2023-04-18T08:02:21.756Z,12.13
2023-04-18T08:04:52.491Z,13.65
2023-04-18T08:07:20.834Z,13.80
2023-04-18T08:09:51.416Z,13.32
2023-04-18T08:12:23.682Z,16.45
2023-04-18T08:14:55.001Z,14.50
2023-04-18T08:17:23.320Z,14.68
2023-04-18T08:20:00.370Z,16.33
2023-04-18T08:22:57.786Z,14.40
2023-04-18T08:25:31.587Z,14.15
2023-04-18T08:27:58.840Z,15.57
2023-04-18T08:30:42.116Z,13.63
2023-04-18T08:33:10.920Z,17.52
2023-04-18T08:35:38.043Z,15.25
2023-04-18T08:38:08.226Z,14.68
2023-04-18T08:40:35.603Z,13.75
2023-04-18T08:43:05.462Z,15.38
2023-04-18T08:45:38.418Z,14.23
2023-04-18T08:48:07.688Z,14.10
2023-04-18T08:50:35.855Z,14.73
2023-04-18T08:53:03.597Z,15.98
2023-04-18T08:55:30.769Z,13.25
2023-04-18T08:58:02.587Z,13.32
2023-04-18T09:00:30.433Z,13.55
2023-04-18T09:02:58.195Z,14.00
2023-04-18T09:05:27.433Z,15.38
2023-04-18T09:07:57.094Z,12.75
2023-04-18T09:12:57.807Z,14.00
2023-04-18T09:15:29.235Z,14.37
2023-04-18T09:17:59.375Z,14.95
2023-04-18T09:23:23.468Z,14.27
2023-04-18T09:25:52.940Z,14.40
2023-04-18T09:28:33.150Z,16.48
2023-04-18T09:31:13.406Z,16.17
2023-04-18T09:33:57.735Z,14.93
2023-04-18T09:36:32.161Z,16.70
2023-04-18T09:39:01.542Z,17.23
2023-04-18T09:41:30.841Z,15.18
2023-04-18T09:44:15.018Z,15.00
2023-04-18T09:46:47.131Z,13.98
2023-04-18T09:49:14.997Z,15.40
2023-04-18T09:51:44.885Z,16.02
2023-04-18T09:54:16.467Z,15.38
2023-04-18T09:56:50.670Z,18.02
2023-04-18T09:59:38.200Z,17.90
2023-04-18T10:02:13.722Z,16.17
2023-04-18T10:04:44.277Z,17.35
2023-04-18T10:07:12.847Z,17.00
2023-04-18T10:09:44.781Z,15.77
2023-04-18T10:12:12.742Z,14.93
2023-04-18T10:14:43.759Z,14.38
2023-04-18T10:17:12.049Z,18.13
2023-04-18T10:19:44.304Z,14.95
2023-04-18T10:22:13.252Z,16.63
2023-04-18T10:24:56.828Z,17.83
2023-04-18T10:27:48.524Z,18.02
2023-04-18T10:30:16.854Z,15.93
2023-04-18T10:32:47.125Z,15.02
2023-04-18T10:35:14.561Z,14.75
2023-04-18T10:37:52.372Z,15.38
2023-04-18T10:40:34.503Z,16.90
2023-04-18T10:43:02.982Z,14.65
2023-04-18T10:45:36.555Z,14.02
2023-04-18T10:48:30.738Z,15.70
2023-04-18T10:51:23.668Z,14.18
2023-04-18T10:53:57.059Z,13.82
2023-04-18T10:56:26.244Z,13.73
2023-04-18T10:58:56.789Z,13.07
2023-04-18T11:01:32.875Z,13.20
2023-04-18T11:04:01.186Z,12.30
2023-04-18T11:06:31.711Z,12.15
2023-04-18T11:09:13.850Z,12.45
2023-04-18T11:11:42.023Z,12.77
2023-04-18T11:14:09.331Z,12.98
2023-04-18T11:16:37.206Z,13.27
2023-04-18T11:19:25.805Z,14.73
2023-04-18T11:21:54.531Z,12.98
2023-04-18T11:24:25.739Z,13.45
2023-04-18T11:26:58.944Z,11.77
2023-04-18T11:29:27.606Z,12.07
2023-04-18T11:31:58.646Z,12.57
2023-04-18T11:34:30.893Z,11.93
2023-04-18T11:36:58.955Z,11.18
2023-04-18T11:39:28.194Z,11.10
2023-04-18T11:41:57.060Z,10.50
2023-04-18T11:44:25.226Z,10.43
2023-04-18T11:46:56.932Z,11.40
2023-04-18T11:49:33.950Z,10.10
2023-04-18T11:52:11.412Z,10.90
2023-04-18T11:54:45.573Z,9.75
2023-04-18T11:57:28.461Z,13.55
2023-04-18T12:00:01.202Z,9.82
2023-04-18T12:02:42.650Z,11.15
2023-04-18T12:05:20.605Z,12.57
2023-04-18T12:07:48.144Z,11.48
2023-04-18T12:10:28.709Z,13.82
2023-04-18T12:13:00.203Z,11.73
2023-04-18T12:15:29.916Z,11.85
2023-04-18T12:18:04.912Z,13.43
2023-04-18T12:20:50.593Z,12.30
2023-04-18T12:23:40.491Z,10.95
2023-04-18T12:26:22.850Z,10.67
2023-04-18T12:28:54.150Z,10.68
2023-04-18T12:31:22.463Z,11.93
2023-04-18T12:33:50.953Z,10.52
2023-04-18T12:36:18.237Z,13.88
2023-04-18T12:38:47.547Z,13.30
2023-04-18T12:41:15.502Z,12.55
2023-04-18T12:43:42.390Z,17.27
2023-04-18T12:46:12.923Z,13.48
2023-04-18T12:48:43.711Z,11.32
2023-04-18T12:51:11.487Z,12.45
2023-04-18T12:53:43.352Z,12.25
2023-04-18T12:56:11.653Z,12.57
2023-04-18T12:58:39.079Z,11.60
2023-04-18T13:01:07.520Z,11.63
2023-04-18T13:03:48.593Z,11.15
2023-04-18T13:06:21.756Z,11.55
2023-04-18T13:08:58.738Z,11.55
2023-04-18T13:11:28.482Z,10.43
2023-04-18T13:13:56.596Z,12.35
2023-04-18T13:16:27.037Z,10.70
2023-04-18T13:18:56.914Z,12.18
2023-04-18T13:21:30.320Z,9.70
2023-04-18T13:23:58.106Z,14.30
2023-04-18T13:26:27.020Z,11.60
2023-04-18T13:28:56.522Z,9.40
2023-04-18T13:31:23.893Z,9.07
2023-04-18T13:33:52.480Z,9.73
2023-04-18T13:36:21.040Z,12.13
2023-04-18T13:38:50.845Z,10.13
2023-04-18T13:43:53.967Z,8.35
2023-04-18T13:46:21.493Z,9.50
2023-04-18T13:48:49.889Z,6.93
2023-04-18T13:51:21.366Z,6.68
2023-04-18T13:53:48.697Z,5.57
2023-04-18T13:56:19.452Z,5.65
2023-04-18T13:58:49.112Z,5.55
2023-04-18T14:01:17.527Z,6.03
2023-04-18T14:03:47.146Z,6.53
2023-04-18T14:06:19.168Z,6.60
2023-04-18T14:08:54.155Z,6.63
2023-04-18T14:11:22.661Z,6.20
2023-04-18T14:13:51.110Z,5.05
2023-04-18T14:16:19.682Z,6.05
2023-04-18T14:18:50.079Z,7.72
2023-04-18T14:21:17.242Z,5.18
2023-04-18T14:23:44.918Z,6.50
2023-04-18T14:26:12.483Z,5.47
2023-04-18T14:28:40.352Z,5.25
2023-04-18T14:31:07.569Z,6.03
2023-04-18T14:33:34.726Z,5.38
2023-04-18T14:36:04.540Z,5.30
2023-04-18T14:41:18.054Z,4.63
2023-04-18T14:43:44.861Z,7.07
2023-04-18T14:46:18.977Z,6.22
2023-04-18T14:48:47.143Z,5.35
2023-04-18T14:51:16.695Z,6.20
2023-04-18T14:53:44.972Z,6.82
2023-04-18T14:56:12.706Z,8.05
2023-04-18T14:58:40.742Z,5.75
2023-04-18T15:01:09.772Z,7.03
2023-04-18T15:03:37.033Z,5.70
2023-04-18T15:06:05.181Z,6.85
2023-04-18T15:08:33.222Z,5.35
2023-04-18T15:11:01.122Z,6.00
2023-04-18T15:13:28.007Z,6.05
2023-04-18T15:15:56.998Z,6.53
2023-04-18T15:18:24.671Z,6.20
2023-04-18T15:20:52.037Z,5.53
2023-04-18T15:23:18.940Z,5.38
2023-04-18T15:25:47.280Z,5.55
2023-04-18T15:28:14.402Z,5.00
2023-04-18T15:30:41.700Z,5.88
2023-04-18T15:33:08.843Z,5.55
2023-04-18T15:35:39.819Z,6.05
2023-04-18T15:38:07.529Z,4.75
2023-04-18T15:40:36.623Z,6.30
2023-04-18T15:43:05.223Z,5.75
2023-04-18T15:45:34.124Z,5.22
2023-04-18T15:48:02.157Z,5.97
2023-04-18T15:50:38.218Z,5.28
2023-04-18T15:53:05.059Z,6.47
2023-04-18T15:55:31.938Z,5.85
2023-04-18T15:57:58.888Z,5.78
2023-04-18T16:00:32.463Z,7.40
2023-04-18T16:03:00.999Z,6.85
2023-04-18T16:05:31.130Z,6.10
2023-04-18T16:08:05.413Z,7.85
2023-04-18T16:10:34.503Z,6.97
2023-04-18T16:13:02.422Z,7.22
2023-04-18T16:15:32.382Z,7.63
2023-04-18T16:17:59.908Z,7.18
2023-04-18T16:20:28.064Z,9.52
2023-04-18T16:22:55.415Z,9.13
2023-04-18T16:25:26.868Z,9.68
2023-04-18T16:28:01.963Z,9.90
2023-04-18T16:30:29.104Z,10.50
2023-04-18T16:33:07.524Z,6.90
2023-04-18T16:35:34.938Z,7.80
2023-04-18T16:38:02.389Z,6.55
2023-04-18T16:40:31.365Z,7.43
2023-04-18T16:42:59.098Z,9.43
2023-04-18T16:45:25.926Z,5.93
2023-04-18T16:47:53.284Z,6.63
2023-04-18T16:50:21.531Z,7.15
2023-04-18T16:52:50.109Z,5.90
2023-04-18T16:55:17.320Z,9.18
2023-04-18T16:57:47.165Z,8.25
2023-04-18T17:00:14.943Z,6.50
2023-04-18T17:02:43.817Z,7.45
2023-04-18T17:05:11.195Z,9.37
2023-04-18T17:07:38.175Z,7.05
2023-04-18T17:10:08.849Z,7.53
2023-04-18T17:12:38.189Z,7.78
2023-04-18T17:15:07.356Z,7.85
2023-04-18T17:17:50.410Z,9.03
2023-04-18T17:20:20.762Z,10.63
2023-04-18T17:22:48.668Z,7.40
2023-04-18T17:25:21.212Z,7.75
2023-04-18T17:27:48.254Z,7.57
2023-04-18T17:30:16.094Z,7.80
2023-04-18T17:32:47.158Z,6.20
2023-04-18T17:35:20.250Z,6.50
2023-04-18T17:37:49.479Z,6.95
2023-04-18T17:40:16.631Z,6.57
2023-04-18T17:42:46.391Z,7.78
2023-04-18T17:45:20.794Z,7.55
2023-04-18T17:47:51.731Z,6.07
2023-04-18T17:50:20.430Z,6.88
2023-04-18T17:53:04.305Z,8.45
2023-04-18T17:55:31.364Z,7.10
2023-04-18T17:57:58.528Z,5.40
2023-04-18T18:00:30.104Z,7.13
2023-04-18T18:02:57.562Z,7.30
2023-04-18T18:05:27.247Z,6.25
2023-04-18T18:07:57.705Z,6.90
2023-04-18T18:10:27.520Z,8.18
2023-04-18T18:13:03.949Z,6.03
2023-04-18T18:15:34.682Z,6.25
2023-04-18T18:18:02.325Z,5.93
2023-04-18T18:20:30.897Z,6.63
2023-04-18T18:23:10.312Z,6.57
2023-04-18T18:25:41.567Z,6.95
2023-04-18T18:28:11.729Z,6.72
2023-04-18T18:30:40.197Z,5.50
2023-04-18T18:33:09.014Z,7.47
2023-04-18T18:35:36.424Z,6.13
2023-04-18T18:38:03.361Z,6.85
2023-04-18T18:40:30.534Z,7.43
2023-04-18T18:42:57.450Z,9.23
2023-04-18T18:45:24.544Z,8.38
2023-04-18T18:47:54.583Z,7.00
2023-04-18T18:50:21.662Z,8.60
2023-04-18T18:55:16.320Z,8.57
2023-04-18T18:57:43.123Z,8.23
2023-04-18T19:00:13.359Z,8.80
2023-04-18T19:02:40.326Z,8.95
2023-04-18T19:05:07.891Z,8.98
2023-04-18T19:07:34.737Z,8.48
2023-04-18T19:10:03.350Z,8.20
2023-04-18T19:12:31.366Z,10.25
2023-04-18T19:14:58.334Z,9.18
2023-04-18T19:17:26.619Z,11.05
2023-04-18T19:19:58.915Z,9.88
2023-04-18T19:22:25.882Z,10.02
2023-04-18T19:24:53.508Z,8.27
2023-04-18T19:27:20.453Z,8.85
2023-04-18T19:29:49.652Z,8.52
2023-04-18T19:32:17.827Z,9.05
2023-04-18T19:34:44.747Z,7.53
2023-04-18T19:37:11.799Z,8.43
2023-04-18T19:39:38.792Z,9.05
2023-04-18T19:42:08.557Z,8.23
2023-04-18T19:44:40.004Z,8.02
2023-04-18T19:47:08.988Z,9.57
2023-04-18T19:49:38.252Z,9.15
2023-04-18T19:52:06.081Z,10.18
2023-04-18T19:54:34.627Z,8.60
2023-04-18T19:57:02.374Z,8.88
2023-04-18T19:59:29.278Z,10.35
2023-04-18T20:01:58.626Z,9.23
2023-04-18T20:04:29.170Z,10.13
2023-04-18T20:06:57.316Z,8.55
2023-04-18T20:09:25.737Z,10.00
2023-04-18T20:11:54.221Z,9.18
2023-04-18T20:14:21.890Z,8.70
2023-04-18T20:16:49.899Z,7.47
2023-04-18T20:19:17.800Z,11.10
2023-04-18T20:21:45.108Z,9.82
2023-04-18T20:24:12.263Z,9.60
2023-04-18T20:26:39.421Z,9.43
2023-04-18T20:29:06.439Z,10.05
2023-04-18T20:31:34.044Z,9.05
2023-04-18T20:34:01.109Z,8.63
2023-04-18T20:36:30.912Z,10.00
2023-04-18T20:38:58.009Z,8.77
2023-04-18T20:41:26.797Z,9.32
2023-04-18T20:43:53.732Z,9.27
2023-04-18T20:46:21.678Z,9.18
2023-04-18T20:48:49.296Z,10.88
2023-04-18T20:51:16.160Z,11.70
2023-04-18T20:53:43.052Z,9.30
2023-04-18T20:56:10.109Z,8.55
2023-04-18T20:58:36.920Z,8.90
2023-04-18T21:01:03.725Z,9.63
2023-04-18T21:03:31.206Z,9.63
2023-04-18T21:05:58.513Z,10.05
2023-04-18T21:08:25.468Z,9.50
2023-04-18T21:10:54.714Z,11.63
2023-04-18T21:13:21.553Z,10.40
2023-04-18T21:15:51.716Z,9.27
2023-04-18T21:18:19.492Z,9.95
2023-04-18T21:20:46.375Z,10.82
2023-04-18T21:23:13.592Z,11.50
2023-04-18T21:25:41.429Z,11.45
2023-04-18T21:28:08.368Z,10.30
2023-04-18T21:30:35.433Z,9.63
2023-04-18T21:33:02.689Z,10.32
2023-04-18T21:35:30.195Z,9.70
2023-04-18T21:38:00.783Z,11.23
2023-04-18T21:40:30.794Z,12.82
2023-04-18T21:45:25.863Z,9.65
2023-04-18T21:47:52.935Z,10.15
2023-04-18T21:50:20.187Z,10.05
2023-04-18T21:52:47.156Z,11.88
2023-04-18T21:55:14.630Z,11.05
2023-04-18T21:57:41.550Z,10.02
2023-04-18T22:00:11.177Z,11.48
2023-04-18T22:02:40.217Z,11.32
2023-04-18T22:05:07.935Z,10.60
2023-04-18T22:07:50.065Z,10.90
2023-04-18T22:10:22.756Z,10.18
2023-04-18T22:12:54.258Z,9.10
2023-04-18T22:15:21.396Z,13.13
2023-04-18T22:17:50.220Z,10.35
2023-04-18T22:20:17.429Z,11.77
2023-04-18T22:22:44.586Z,12.55
2023-04-18T22:25:11.824Z,11.27
2023-04-18T22:27:39.554Z,11.82
2023-04-18T22:30:07.524Z,11.07
2023-04-18T22:32:34.882Z,11.75
2023-04-18T22:35:03.011Z,13.43
2023-04-18T22:37:30.343Z,13.10
2023-04-18T22:39:57.348Z,11.25
2023-04-18T22:42:24.410Z,10.75
2023-04-18T22:44:51.286Z,10.55
2023-04-18T22:47:18.273Z,11.82
2023-04-18T22:49:45.994Z,10.95
2023-04-18T22:52:14.629Z,13.57
2023-04-18T22:54:45.315Z,12.20
2023-04-18T22:57:12.420Z,12.85
2023-04-18T22:59:39.656Z,10.52
2023-04-18T23:02:06.970Z,12.48
2023-04-18T23:04:34.238Z,13.27
2023-04-18T23:07:01.286Z,12.98
2023-04-18T23:09:30.814Z,10.45
2023-04-18T23:11:58.153Z,11.07
2023-04-18T23:14:25.276Z,11.50
2023-04-18T23:16:52.440Z,13.48
2023-04-18T23:19:19.548Z,13.25
2023-04-18T23:21:48.326Z,12.48
2023-04-18T23:26:44.748Z,11.05
2023-04-18T23:29:11.825Z,14.65
2023-04-18T23:31:38.820Z,12.40
2023-04-18T23:34:05.935Z,14.98
2023-04-18T23:36:33.330Z,12.32
2023-04-18T23:39:00.329Z,13.35
2023-04-18T23:41:27.347Z,12.20
2023-04-18T23:43:54.574Z,11.93
2023-04-18T23:46:22.286Z,12.88
2023-04-18T23:48:49.705Z,13.05
2023-04-18T23:51:16.585Z,12.35
2023-04-18T23:53:43.785Z,13.75
2023-04-18T23:56:10.753Z,11.65
2023-04-18T23:58:37.706Z,12.25
